Time;durP1;ratioP1;P1;durP2;ratioP2;P2;SDS_P1;SDS_P2;PMS_P1;PMS_P2;Temp;Humidity;BMP_temperature;BMP_pressure;BME280_temperature;BME280_humidity;BME280_pressure;Samples;Min_cycle;Max_cycle;Signal;HPM_P1;HPM_P2
2023/08/01 00:00:08;;;;;;;3.65;2.72;;;17.30;99.90;;;;;;5002539;28;20061;-36
2023/08/01 00:02:33;;;;;;;5.30;2.88;;;17.30;99.90;;;;;;5005871;28;20091;-36
2023/08/01 00:04:59;;;;;;;3.40;2.42;;;17.20;99.90;;;;;;5003118;28;20040;-35
2023/08/01 00:07:27;;;;;;;4.53;2.53;;;17.10;99.90;;;;;;5011017;28;20045;-34
2023/08/01 00:09:53;;;;;;;3.60;2.67;;;17.20;99.90;;;;;;5004992;28;20478;-36
2023/08/01 00:12:18;;;;;;;5.45;2.53;;;17.10;99.90;;;;;;5004489;28;20053;-34
2023/08/01 00:14:44;;;;;;;3.47;2.38;;;16.90;99.90;;;;;;5001727;28;20053;-36
2023/08/01 00:17:10;;;;;;;3.20;2.65;;;16.90;99.90;;;;;;5004817;28;20626;-38
2023/08/01 00:19:35;;;;;;;4.28;2.70;;;17.00;99.90;;;;;;5006100;28;20027;-31
2023/08/01 00:22:01;;;;;;;3.45;2.60;;;17.00;99.90;;;;;;5002539;28;20026;-35
2023/08/01 00:24:27;;;;;;;3.70;2.60;;;17.10;99.90;;;;;;5005713;28;20022;-36
2023/08/01 00:26:55;;;;;;;4.25;2.33;;;17.10;99.90;;;;;;5008829;28;20033;-38
2023/08/01 00:29:21;;;;;;;3.88;2.40;;;17.10;99.90;;;;;;5004269;28;20100;-41
2023/08/01 00:31:46;;;;;;;3.60;2.38;;;17.10;99.90;;;;;;4997584;28;20690;-41
2023/08/01 00:34:12;;;;;;;5.72;2.38;;;17.20;99.90;;;;;;4999097;28;20026;-41
2023/08/01 00:36:38;;;;;;;2.92;2.47;;;17.20;99.90;;;;;;5006193;28;20033;-41
2023/08/01 00:39:03;;;;;;;2.90;2.22;;;17.20;99.90;;;;;;5006692;28;20029;-41
2023/08/01 00:41:29;;;;;;;3.90;2.42;;;17.20;99.90;;;;;;5003906;28;20500;-39
2023/08/01 00:43:54;;;;;;;6.88;2.88;;;17.20;99.90;;;;;;5002356;28;20085;-41
2023/08/01 00:46:20;;;;;;;3.10;2.63;;;17.30;99.90;;;;;;5002120;28;20498;-39
2023/08/01 00:48:46;;;;;;;4.82;2.42;;;17.30;99.90;;;;;;5003685;28;20038;-38
2023/08/01 00:51:12;;;;;;;3.85;2.42;;;17.30;99.90;;;;;;4987619;28;20042;-41
2023/08/01 00:53:39;;;;;;;3.45;2.30;;;17.30;99.90;;;;;;5005375;28;20803;-41
2023/08/01 00:56:05;;;;;;;5.22;2.78;;;17.30;99.90;;;;;;5000939;28;20034;-40
2023/08/01 00:58:31;;;;;;;3.00;2.50;;;17.40;99.90;;;;;;5005981;28;20537;-36
2023/08/01 01:00:57;;;;;;;4.55;2.55;;;17.40;99.90;;;;;;4999017;28;20052;-39
2023/08/01 01:03:23;;;;;;;4.05;2.53;;;17.40;99.90;;;;;;5006338;28;20105;-30
2023/08/01 01:06:05;;;;;;;4.40;2.53;;;17.40;99.90;;;;;;5007049;28;20025;-32
2023/08/01 01:08:31;;;;;;;2.92;2.25;;;17.30;99.90;;;;;;5003648;28;20038;-31
2023/08/01 01:10:57;;;;;;;3.65;2.20;;;17.30;99.90;;;;;;4998186;28;21622;-35
2023/08/01 01:13:22;;;;;;;2.95;2.70;;;17.40;99.90;;;;;;5003165;28;20069;-34
2023/08/01 01:15:48;;;;;;;3.25;2.22;;;17.30;99.90;;;;;;5007034;28;20089;-29
2023/08/01 01:18:13;;;;;;;2.53;2.33;;;17.40;99.90;;;;;;5007096;28;20450;-32
2023/08/01 01:20:39;;;;;;;4.05;2.50;;;17.40;99.90;;;;;;5002642;28;20032;-32
2023/08/01 01:23:06;;;;;;;3.17;2.60;;;17.40;99.90;;;;;;5006403;28;20095;-31
2023/08/01 01:25:33;;;;;;;3.13;2.38;;;17.40;99.90;;;;;;5007603;28;20486;-31
2023/08/01 01:28:00;;;;;;;4.97;4.10;;;17.40;99.90;;;;;;5005099;28;20050;-29
2023/08/01 01:30:28;;;;;;;3.33;2.50;;;17.40;99.90;;;;;;5006702;28;20050;-31
2023/08/01 01:32:54;;;;;;;3.35;2.42;;;17.40;99.90;;;;;;5004859;28;20396;-33
2023/08/01 01:35:19;;;;;;;3.38;2.35;;;17.40;99.90;;;;;;5013462;28;20025;-32
2023/08/01 01:37:45;;;;;;;5.72;2.60;;;17.40;99.90;;;;;;5000459;28;20391;-30
2023/08/01 01:40:11;;;;;;;3.53;2.72;;;17.40;99.90;;;;;;4991326;28;20026;-31
2023/08/01 01:42:37;;;;;;;3.00;2.30;;;17.40;99.90;;;;;;5005975;28;20030;-32
2023/08/01 01:45:03;;;;;;;3.17;2.33;;;17.50;99.90;;;;;;4987411;28;20041;-33
2023/08/01 01:47:28;;;;;;;2.97;2.47;;;17.40;99.90;;;;;;5005865;28;20113;-32
2023/08/01 01:49:54;;;;;;;4.72;3.13;;;17.40;99.90;;;;;;5001651;28;20109;-42
2023/08/01 01:52:20;;;;;;;3.90;2.65;;;17.40;99.90;;;;;;5002570;28;20029;-41
2023/08/01 01:54:45;;;;;;;5.07;2.80;;;17.40;99.90;;;;;;5006411;28;20030;-40
2023/08/01 01:57:11;;;;;;;3.22;2.28;;;17.30;99.90;;;;;;5001945;28;20034;-41
2023/08/01 01:59:36;;;;;;;4.45;2.40;;;17.20;99.90;;;;;;5002924;28;20034;-40
2023/08/01 02:02:03;;;;;;;4.30;2.75;;;17.30;99.90;;;;;;4999373;28;20033;-37
2023/08/01 02:04:29;;;;;;;2.97;2.20;;;17.20;99.90;;;;;;5004826;28;20057;-41
2023/08/01 02:06:55;;;;;;;3.10;2.35;;;17.30;99.90;;;;;;5003466;28;20105;-37
2023/08/01 02:09:21;;;;;;;5.30;2.75;;;17.20;99.90;;;;;;5002584;28;20033;-40
2023/08/01 02:11:46;;;;;;;3.80;1.98;;;17.20;99.90;;;;;;5000930;28;20510;-39
2023/08/01 02:14:13;;;;;;;3.15;2.40;;;17.20;99.90;;;;;;5000857;28;20096;-41
2023/08/01 02:16:39;;;;;;;2.92;2.60;;;17.30;99.90;;;;;;5002304;28;20118;-41
2023/08/01 02:19:04;;;;;;;4.95;2.72;;;17.30;99.90;;;;;;5001593;28;20135;-35
2023/08/01 02:21:30;;;;;;;6.00;2.53;;;17.30;99.90;;;;;;5002713;28;20138;-40
2023/08/01 02:23:55;;;;;;;3.88;2.67;;;17.30;99.90;;;;;;4999862;28;20502;-40
2023/08/01 02:26:23;;;;;;;4.18;2.65;;;17.30;99.90;;;;;;4983095;28;20100;-39
2023/08/01 02:28:48;;;;;;;3.47;2.53;;;17.30;99.90;;;;;;5004149;28;20133;-41
2023/08/01 02:31:15;;;;;;;2.95;2.58;;;17.30;99.90;;;;;;4999959;28;20490;-40
2023/08/01 02:33:41;;;;;;;3.13;2.25;;;17.20;99.90;;;;;;5002850;28;20030;-41
2023/08/01 02:36:06;;;;;;;3.33;2.60;;;17.20;99.90;;;;;;5002634;28;20113;-39
2023/08/01 02:38:32;;;;;;;5.82;2.70;;;17.10;99.90;;;;;;5000494;28;20495;-41
2023/08/01 02:40:58;;;;;;;3.92;2.78;;;17.10;99.90;;;;;;5005688;28;20017;-41
2023/08/01 02:43:23;;;;;;;5.13;2.40;;;17.10;99.90;;;;;;5001434;28;20387;-39
2023/08/01 02:45:49;;;;;;;5.53;2.53;;;17.10;99.90;;;;;;5005022;28;20025;-40
2023/08/01 02:48:15;;;;;;;5.28;2.38;;;17.00;99.90;;;;;;5001521;28;20030;-40
2023/08/01 02:50:41;;;;;;;3.67;2.95;;;16.90;99.90;;;;;;5006091;28;20030;-39
2023/08/01 02:53:06;;;;;;;5.95;3.15;;;17.00;99.90;;;;;;5004838;28;20064;-37
2023/08/01 02:55:32;;;;;;;3.40;2.47;;;17.10;99.90;;;;;;4998260;28;20030;-40
2023/08/01 02:57:57;;;;;;;4.03;2.90;;;17.00;99.90;;;;;;5001081;28;20046;-41
2023/08/01 03:00:23;;;;;;;5.70;2.55;;;17.00;99.90;;;;;;5003469;28;20021;-31
2023/08/01 03:02:48;;;;;;;5.40;2.47;;;17.00;99.90;;;;;;5001412;28;20166;-31
2023/08/01 03:05:14;;;;;;;4.28;3.33;;;16.90;99.90;;;;;;5009404;28;20120;-32
2023/08/01 03:07:39;;;;;;;4.20;2.75;;;16.80;99.90;;;;;;5002661;28;20030;-31
2023/08/01 03:10:06;;;;;;;4.47;2.70;;;16.90;99.90;;;;;;4998948;28;20068;-31
2023/08/01 03:12:32;;;;;;;3.13;2.83;;;16.90;99.90;;;;;;5002540;28;20447;-33
2023/08/01 03:14:58;;;;;;;4.93;3.00;;;16.80;99.90;;;;;;5003815;28;20057;-32
2023/08/01 03:17:24;;;;;;;4.45;2.65;;;16.80;99.90;;;;;;5000314;28;20061;-31
2023/08/01 03:19:49;;;;;;;4.13;2.92;;;16.80;99.90;;;;;;5002144;28;20034;-30
2023/08/01 03:22:15;;;;;;;5.40;2.72;;;16.80;99.90;;;;;;4999449;28;20082;-31
2023/08/01 03:24:41;;;;;;;3.75;2.60;;;16.80;99.90;;;;;;5007378;28;20034;-31
2023/08/01 03:27:07;;;;;;;6.35;2.92;;;16.80;99.90;;;;;;5010492;28;20033;-31
2023/08/01 03:29:32;;;;;;;3.67;2.50;;;16.70;99.90;;;;;;5004363;28;20506;-31
2023/08/01 03:31:58;;;;;;;4.65;2.85;;;16.70;99.90;;;;;;5006799;28;20125;-32
2023/08/01 03:34:24;;;;;;;3.90;2.40;;;16.70;99.90;;;;;;5006704;28;20025;-30
2023/08/01 03:36:50;;;;;;;4.40;2.92;;;16.60;99.90;;;;;;5004557;28;20029;-30
2023/08/01 03:39:15;;;;;;;7.55;3.05;;;16.60;99.90;;;;;;5011279;28;20030;-31
2023/08/01 03:41:43;;;;;;;5.20;2.78;;;16.60;99.90;;;;;;5005510;28;20037;-30
2023/08/01 03:44:09;;;;;;;5.57;3.08;;;16.60;99.90;;;;;;5002568;28;20428;-33
2023/08/01 03:46:34;;;;;;;6.18;3.38;;;16.60;99.90;;;;;;5006111;28;20038;-34
2023/08/01 03:49:00;;;;;;;4.95;2.70;;;16.60;99.90;;;;;;5005605;28;20502;-32
2023/08/01 03:51:25;;;;;;;4.20;2.70;;;16.60;99.90;;;;;;5006063;28;20048;-31
2023/08/01 03:53:51;;;;;;;3.85;3.10;;;16.60;99.90;;;;;;5010924;28;20030;-32
2023/08/01 03:56:17;;;;;;;5.25;2.90;;;16.60;99.90;;;;;;5004615;28;20378;-31
2023/08/01 03:58:42;;;;;;;5.32;3.35;;;16.60;99.90;;;;;;5002316;28;20034;-32
2023/08/01 04:01:08;;;;;;;2.75;2.40;;;16.60;99.90;;;;;;5002148;28;20807;-31
2023/08/01 04:03:33;;;;;;;4.32;2.83;;;16.60;99.90;;;;;;4996741;28;20037;-31
2023/08/01 04:05:59;;;;;;;4.45;3.40;;;16.60;99.90;;;;;;5006598;28;20026;-32
2023/08/01 04:08:25;;;;;;;4.45;3.13;;;16.60;99.90;;;;;;5008079;28;20097;-32
2023/08/01 04:10:50;;;;;;;4.53;2.92;;;16.60;99.90;;;;;;5012678;28;20387;-33
2023/08/01 04:13:16;;;;;;;3.95;3.22;;;16.60;99.90;;;;;;4999568;28;20166;-32
2023/08/01 04:15:41;;;;;;;4.70;2.90;;;16.60;99.90;;;;;;5007326;28;20513;-32
2023/08/01 04:18:07;;;;;;;4.25;2.92;;;16.60;99.90;;;;;;4983406;28;20018;-33
2023/08/01 04:20:33;;;;;;;6.47;2.95;;;16.60;99.90;;;;;;5004183;28;20108;-33
2023/08/01 04:22:58;;;;;;;4.15;2.97;;;16.60;99.90;;;;;;5008307;28;20068;-33
2023/08/01 04:25:26;;;;;;;4.85;3.03;;;16.60;99.90;;;;;;5003308;28;20068;-32
2023/08/01 04:27:52;;;;;;;4.18;3.05;;;16.60;99.90;;;;;;5005320;28;20684;-35
2023/08/01 04:30:18;;;;;;;5.25;3.28;;;16.60;99.90;;;;;;5009714;28;20030;-33
2023/08/01 04:32:43;;;;;;;5.85;2.80;;;16.60;99.90;;;;;;5007089;28;20133;-34
2023/08/01 04:35:09;;;;;;;6.03;3.47;;;16.60;99.90;;;;;;5002911;28;20368;-33
2023/08/01 04:37:34;;;;;;;5.22;3.15;;;16.60;99.90;;;;;;5006211;28;20030;-33
2023/08/01 04:40:00;;;;;;;6.30;3.20;;;16.60;99.90;;;;;;5000870;28;20105;-31
2023/08/01 04:42:26;;;;;;;5.68;3.78;;;16.60;99.90;;;;;;5004412;28;20115;-32
2023/08/01 04:44:52;;;;;;;6.68;3.70;;;16.70;99.90;;;;;;4991234;28;20112;-34
2023/08/01 04:47:17;;;;;;;6.28;3.83;;;16.60;99.90;;;;;;5006015;28;20067;-31
2023/08/01 04:49:43;;;;;;;7.05;3.88;;;16.60;99.90;;;;;;5000621;28;20150;-31
2023/08/01 04:52:08;;;;;;;6.78;3.78;;;16.60;99.90;;;;;;5001888;28;20030;-32
2023/08/01 04:54:34;;;;;;;8.40;4.18;;;16.60;99.90;;;;;;5002292;28;20029;-30
2023/08/01 04:56:59;;;;;;;5.63;3.75;;;16.60;99.90;;;;;;5003220;28;20029;-31
2023/08/01 04:59:25;;;;;;;5.55;3.63;;;16.70;99.90;;;;;;5003611;28;20399;-31
2023/08/01 05:01:51;;;;;;;6.50;3.55;;;16.70;99.90;;;;;;5004942;28;20575;-31
2023/08/01 05:04:16;;;;;;;4.95;3.35;;;16.70;99.90;;;;;;4989359;28;20042;-38
2023/08/01 05:06:42;;;;;;;5.85;3.47;;;16.70;99.90;;;;;;5000076;28;20038;-31
2023/08/01 05:09:07;;;;;;;5.93;3.20;;;16.70;99.90;;;;;;5001059;28;20062;-32
2023/08/01 05:11:33;;;;;;;5.50;3.53;;;16.70;99.90;;;;;;5006638;28;20056;-32
2023/08/01 05:13:59;;;;;;;4.70;3.40;;;16.70;99.90;;;;;;5001772;28;20065;-31
2023/08/01 05:16:24;;;;;;;6.80;3.72;;;16.70;99.90;;;;;;5003165;28;20026;-35
2023/08/01 05:18:50;;;;;;;4.78;3.42;;;16.70;99.90;;;;;;5001970;28;20105;-31
2023/08/01 05:21:15;;;;;;;4.75;3.20;;;16.70;99.90;;;;;;5001460;28;20150;-33
2023/08/01 05:23:41;;;;;;;4.82;2.88;;;16.70;99.90;;;;;;5004878;28;20386;-32
2023/08/01 05:26:07;;;;;;;5.53;3.42;;;16.80;99.90;;;;;;4997511;28;20065;-33
2023/08/01 05:28:32;;;;;;;4.53;3.13;;;16.70;99.90;;;;;;5001168;28;20053;-32
2023/08/01 05:30:58;;;;;;;6.03;3.22;;;16.80;99.90;;;;;;5002627;28;20481;-31
2023/08/01 05:33:23;;;;;;;5.50;3.35;;;16.80;99.90;;;;;;5008634;28;20060;-32
2023/08/01 05:35:50;;;;;;;6.82;4.03;;;16.80;99.90;;;;;;5008062;28;20056;-31
2023/08/01 05:38:16;;;;;;;5.15;3.28;;;16.90;99.90;;;;;;5006468;28;20025;-32
2023/08/01 05:40:41;;;;;;;7.00;3.85;;;16.90;99.90;;;;;;5009135;28;20329;-32
2023/08/01 05:43:08;;;;;;;6.32;3.60;;;16.90;99.90;;;;;;5009136;28;20116;-31
2023/08/01 05:45:35;;;;;;;5.93;3.60;;;16.90;99.90;;;;;;5003565;28;20065;-31
2023/08/01 05:48:01;;;;;;;8.68;4.35;;;16.90;99.90;;;;;;5003931;28;20041;-30
2023/08/01 05:50:27;;;;;;;6.18;3.67;;;16.90;99.90;;;;;;5004525;28;20375;-32
2023/08/01 05:52:53;;;;;;;4.75;3.22;;;16.90;99.90;;;;;;5008838;28;20036;-32
2023/08/01 05:55:18;;;;;;;3.42;2.85;;;16.90;99.90;;;;;;5009174;28;20042;-30
2023/08/01 05:57:44;;;;;;;4.95;3.20;;;16.90;99.90;;;;;;5003122;28;20085;-32
2023/08/01 06:00:10;;;;;;;5.93;3.50;;;16.90;99.90;;;;;;4985716;28;20018;-33
2023/08/01 06:02:36;;;;;;;3.95;3.05;;;17.00;99.90;;;;;;5006745;28;20501;-31
2023/08/01 06:05:02;;;;;;;5.35;2.85;;;17.00;99.90;;;;;;5003061;28;20050;-31
2023/08/01 06:07:27;;;;;;;5.38;3.13;;;16.90;99.90;;;;;;4997970;28;20061;-31
2023/08/01 06:09:53;;;;;;;6.38;3.10;;;17.00;99.90;;;;;;5005738;28;20057;-34
2023/08/01 06:12:19;;;;;;;6.07;3.33;;;17.00;99.90;;;;;;5004196;28;20026;-32
2023/08/01 06:14:46;;;;;;;4.90;3.63;;;17.00;99.90;;;;;;5005426;28;20554;-32
2023/08/01 06:17:11;;;;;;;6.05;3.25;;;17.00;99.90;;;;;;4999540;28;20060;-30
2023/08/01 06:19:37;;;;;;;7.53;3.60;;;17.00;99.90;;;;;;5003072;28;20025;-30
2023/08/01 06:22:02;;;;;;;6.13;3.17;;;17.00;99.90;;;;;;4994364;28;20042;-31
2023/08/01 06:24:28;;;;;;;3.92;2.97;;;17.00;99.90;;;;;;4988222;28;20037;-33
2023/08/01 06:26:54;;;;;;;4.57;3.05;;;17.10;99.90;;;;;;4994908;28;20110;-32
2023/08/01 06:29:19;;;;;;;5.25;2.83;;;17.10;99.90;;;;;;5007220;28;20041;-31
2023/08/01 06:31:45;;;;;;;6.78;3.30;;;17.10;99.90;;;;;;4999413;28;20049;-32
2023/08/01 06:34:11;;;;;;;4.20;2.75;;;17.10;99.90;;;;;;4995553;28;20623;-33
2023/08/01 06:36:36;;;;;;;4.97;3.03;;;17.10;99.90;;;;;;5006108;28;20048;-34
2023/08/01 06:39:03;;;;;;;7.32;2.70;;;17.20;99.90;;;;;;4997815;28;20514;-33
2023/08/01 06:41:28;;;;;;;4.20;2.70;;;17.20;99.90;;;;;;5006404;28;20071;-31
2023/08/01 06:43:54;;;;;;;4.68;2.92;;;17.30;99.90;;;;;;5002515;28;20502;-29
2023/08/01 06:46:29;;;;;;;4.75;2.70;;;17.30;99.90;;;;;;4987892;28;20018;-32
2023/08/01 06:48:54;;;;;;;5.47;3.00;;;17.40;99.90;;;;;;5003193;28;20056;-32
2023/08/01 06:51:20;;;;;;;4.63;2.75;;;17.50;99.90;;;;;;5011411;28;20074;-32
2023/08/01 06:53:46;;;;;;;5.53;2.78;;;17.70;99.90;;;;;;5007078;28;20040;-35
2023/08/01 06:56:12;;;;;;;6.25;2.80;;;17.70;99.90;;;;;;5000630;28;20026;-31
2023/08/01 06:58:37;;;;;;;4.63;3.10;;;17.80;99.90;;;;;;5006306;28;20033;-35
2023/08/01 07:01:03;;;;;;;4.60;3.05;;;17.80;99.90;;;;;;5002581;28;20029;-33
2023/08/01 07:03:29;;;;;;;3.97;2.38;;;17.90;99.90;;;;;;5002873;28;20437;-31
2023/08/01 07:05:54;;;;;;;4.78;2.55;;;18.10;99.90;;;;;;4998598;28;20565;-31
2023/08/01 07:08:21;;;;;;;4.13;2.60;;;18.20;99.90;;;;;;5001788;28;20022;-32
2023/08/01 07:10:47;;;;;;;5.80;2.90;;;18.20;99.90;;;;;;4998504;28;20030;-40
2023/08/01 07:13:12;;;;;;;8.02;2.80;;;18.30;99.90;;;;;;5000589;28;20076;-40
2023/08/01 07:15:38;;;;;;;6.15;2.60;;;18.30;99.90;;;;;;5006443;28;20029;-40
2023/08/01 07:18:04;;;;;;;4.15;3.05;;;18.40;99.90;;;;;;5000128;28;20049;-40
2023/08/01 07:20:29;;;;;;;3.95;2.63;;;18.50;99.90;;;;;;5001382;28;20101;-41
2023/08/01 07:22:55;;;;;;;3.97;2.78;;;18.70;99.90;;;;;;5015440;28;20053;-41
2023/08/01 07:25:22;;;;;;;5.80;2.78;;;18.90;99.90;;;;;;5003776;28;20026;-41
2023/08/01 07:27:47;;;;;;;4.70;2.60;;;19.00;99.90;;;;;;4999692;28;20161;-40
2023/08/01 07:30:13;;;;;;;4.45;2.50;;;18.90;99.90;;;;;;5006875;28;20109;-41
2023/08/01 07:32:39;;;;;;;5.78;3.15;;;18.90;99.90;;;;;;5004152;28;20579;-40
2023/08/01 07:35:06;;;;;;;4.43;2.90;;;18.80;99.90;;;;;;4999637;28;20033;-38
2023/08/01 07:37:33;;;;;;;4.07;2.38;;;18.80;99.90;;;;;;5000949;28;20057;-40
2023/08/01 07:39:59;;;;;;;4.45;2.90;;;18.80;99.90;;;;;;4995564;28;20026;-31
2023/08/01 07:42:25;;;;;;;4.25;2.92;;;18.70;99.90;;;;;;5002011;28;20522;-33
2023/08/01 07:44:50;;;;;;;3.83;2.58;;;18.70;99.90;;;;;;4996966;28;20108;-32
2023/08/01 07:47:16;;;;;;;4.45;2.65;;;18.50;99.90;;;;;;5007231;28;20040;-32
2023/08/01 07:49:42;;;;;;;4.63;2.67;;;18.50;99.90;;;;;;5006516;28;20506;-32
2023/08/01 07:52:07;;;;;;;4.10;2.55;;;18.40;99.90;;;;;;5003494;28;20025;-34
2023/08/01 07:54:33;;;;;;;3.70;2.90;;;18.40;99.90;;;;;;5003259;28;20058;-32
2023/08/01 07:56:58;;;;;;;7.80;3.00;;;18.40;99.90;;;;;;4999059;28;20026;-31
2023/08/01 07:59:24;;;;;;;5.72;3.05;;;18.40;99.90;;;;;;5002621;28;20475;-32
2023/08/01 08:01:50;;;;;;;6.13;3.03;;;18.50;99.90;;;;;;4999579;28;20073;-31
2023/08/01 08:04:15;;;;;;;5.28;3.05;;;18.50;99.90;;;;;;5010306;28;20077;-32
2023/08/01 08:06:41;;;;;;;6.60;2.90;;;18.50;99.90;;;;;;5004509;28;20044;-32
2023/08/01 08:09:07;;;;;;;5.35;3.22;;;18.50;99.90;;;;;;4999588;28;20041;-41
2023/08/01 08:11:33;;;;;;;5.05;3.00;;;18.50;99.90;;;;;;4993800;28;20030;-39
2023/08/01 08:13:59;;;;;;;3.35;2.42;;;18.40;99.90;;;;;;4976354;28;20029;-38
2023/08/01 08:16:25;;;;;;;6.22;2.75;;;18.50;99.90;;;;;;4999993;28;20113;-40
2023/08/01 08:18:50;;;;;;;4.85;2.45;;;18.50;99.90;;;;;;5007945;28;20180;-41
2023/08/01 08:21:16;;;;;;;3.22;2.67;;;18.60;99.90;;;;;;5006046;28;20038;-40
2023/08/01 08:23:42;;;;;;;6.00;2.75;;;18.60;99.90;;;;;;5005364;28;20594;-37
2023/08/01 08:26:07;;;;;;;3.75;2.53;;;18.60;99.90;;;;;;5010322;28;20072;-41
2023/08/01 08:28:34;;;;;;;4.45;2.30;;;18.60;99.90;;;;;;5003583;28;20356;-41
2023/08/01 08:31:01;;;;;;;5.35;2.65;;;18.60;99.90;;;;;;5002667;28;20585;-40
2023/08/01 08:33:27;;;;;;;3.72;2.03;;;18.60;99.90;;;;;;5003066;28;20052;-41
2023/08/01 08:35:53;;;;;;;4.30;2.70;;;18.70;99.90;;;;;;4999940;28;20041;-39
2023/08/01 08:38:19;;;;;;;2.92;2.40;;;18.80;99.90;;;;;;5005018;28;20030;-41
2023/08/01 08:41:08;;;;;;;3.00;2.13;;;18.90;99.90;;;;;;5007952;28;20044;-40
2023/08/01 08:43:34;;;;;;;3.55;2.55;;;19.00;99.90;;;;;;5002712;28;20475;-39
2023/08/01 08:46:02;;;;;;;5.28;2.25;;;19.00;99.90;;;;;;5005111;28;20022;-40
2023/08/01 08:48:28;;;;;;;3.75;2.30;;;19.10;99.90;;;;;;5000518;28;20052;-40
2023/08/01 08:50:57;;;;;;;4.30;2.35;;;19.20;99.90;;;;;;5011023;28;20030;-32
2023/08/01 08:53:25;;;;;;;6.72;2.92;;;19.20;99.90;;;;;;5000675;28;20663;-33
2023/08/01 08:55:50;;;;;;;3.40;2.33;;;19.20;99.90;;;;;;5006116;28;20056;-32
2023/08/01 08:58:17;;;;;;;2.40;1.90;;;19.30;99.90;;;;;;5007933;28;20038;-32
2023/08/01 09:00:44;;;;;;;2.22;1.90;;;19.40;99.90;;;;;;5005150;28;20584;-33
2023/08/01 09:03:09;;;;;;;3.15;2.47;;;19.40;99.90;;;;;;5006625;28;20054;-33
2023/08/01 09:05:44;;;;;;;3.95;2.30;;;19.50;99.90;;;;;;5005927;28;20060;-33
2023/08/01 09:08:17;;;;;;;3.92;2.53;;;19.50;99.90;;;;;;5004449;28;20048;-32
2023/08/01 09:10:43;;;;;;;4.43;2.38;;;19.60;99.90;;;;;;4999754;28;20031;-35
2023/08/01 09:13:09;;;;;;;4.05;2.90;;;19.90;99.90;;;;;;5002332;28;20769;-32
2023/08/01 09:15:36;;;;;;;2.42;2.20;;;20.10;99.90;;;;;;5005417;28;20026;-34
2023/08/01 09:18:06;;;;;;;3.97;2.53;;;20.00;99.90;;;;;;5006196;28;20398;-33
2023/08/01 09:20:46;;;;;;;4.07;2.47;;;19.80;99.90;;;;;;5003550;28;20033;-41
2023/08/01 09:23:12;;;;;;;3.78;2.40;;;19.90;99.90;;;;;;5000503;28;20022;-41
2023/08/01 09:25:39;;;;;;;4.75;2.35;;;20.10;99.90;;;;;;5002440;28;20026;-41
2023/08/01 09:28:17;;;;;;;4.75;2.53;;;20.10;99.90;;;;;;5004217;28;20143;-36
2023/08/01 09:30:47;;;;;;;3.53;2.50;;;19.90;99.90;;;;;;4996074;28;20108;-41
2023/08/01 09:33:13;;;;;;;3.28;2.20;;;19.90;99.90;;;;;;5002335;28;20092;-41
2023/08/01 09:35:39;;;;;;;6.25;2.55;;;19.70;99.90;;;;;;4999129;28;20449;-40
2023/08/01 09:38:04;;;;;;;4.32;2.30;;;19.60;99.90;;;;;;4999014;28;20022;-39
2023/08/01 09:40:37;;;;;;;3.25;2.30;;;19.40;99.90;;;;;;4988390;28;20099;-41
2023/08/01 09:43:03;;;;;;;3.90;2.60;;;19.20;99.90;;;;;;5001897;28;20774;-40
2023/08/01 09:45:29;;;;;;;5.18;2.28;;;19.10;99.90;;;;;;4997003;28;20062;-41
2023/08/01 09:47:55;;;;;;;7.63;2.88;;;18.90;99.90;;;;;;4992081;28;20022;-41
2023/08/01 09:50:22;;;;;;;3.88;2.47;;;18.70;99.90;;;;;;4991888;28;20367;-39
2023/08/01 09:52:53;;;;;;;3.60;2.83;;;18.60;99.90;;;;;;5004570;28;20034;-39
2023/08/01 09:55:32;;;;;;;6.80;2.60;;;18.40;99.90;;;;;;5005408;28;20635;-40
2023/08/01 09:57:59;;;;;;;3.80;2.90;;;18.40;99.90;;;;;;5009794;28;20022;-40
2023/08/01 10:00:29;;;;;;;3.70;2.33;;;18.20;99.90;;;;;;5001653;28;20061;-37
2023/08/01 10:03:00;;;;;;;4.18;2.40;;;18.10;99.90;;;;;;4985145;28;20125;-34
2023/08/01 10:05:31;;;;;;;6.43;2.83;;;18.00;99.90;;;;;;5000583;28;20061;-34
2023/08/01 10:08:02;;;;;;;2.70;2.20;;;17.90;99.90;;;;;;5008212;28;20029;-31
2023/08/01 10:10:28;;;;;;;6.43;2.70;;;17.70;99.90;;;;;;5001817;28;20587;-32
2023/08/01 10:12:57;;;;;;;5.03;2.30;;;17.70;99.90;;;;;;5009481;28;20021;-31
2023/08/01 10:15:28;;;;;;;4.65;2.45;;;17.60;99.90;;;;;;5005155;28;20294;-32
2023/08/01 10:17:53;;;;;;;4.22;2.30;;;17.60;99.90;;;;;;5008729;28;20033;-34
2023/08/01 10:20:21;;;;;;;4.35;2.72;;;17.60;99.90;;;;;;5000608;28;20471;-32
2023/08/01 10:22:49;;;;;;;3.58;2.20;;;17.50;99.90;;;;;;5002062;28;20036;-32
2023/08/01 10:25:16;;;;;;;;;;;17.40;99.90;;;;;;5001037;28;20440;-33
2023/08/01 10:27:41;;;;;;;4.78;2.58;;;17.40;99.90;;;;;;5003084;28;20412;-35
2023/08/01 10:30:09;;;;;;;4.57;2.60;;;17.40;99.90;;;;;;5009037;28;20035;-41
2023/08/01 10:32:37;;;;;;;3.33;2.47;;;17.50;99.90;;;;;;5002171;28;20042;-41
2023/08/01 10:35:04;;;;;;;3.78;2.25;;;17.50;99.90;;;;;;4999506;28;20037;-36
2023/08/01 10:37:43;;;;;;;3.58;2.30;;;17.60;99.90;;;;;;5001739;28;20030;-42
2023/08/01 10:40:09;;;;;;;4.65;2.90;;;17.70;99.90;;;;;;5007653;28;20080;-42
2023/08/01 10:42:45;;;;;;;3.17;2.55;;;17.80;99.90;;;;;;5001006;28;20030;-39
2023/08/01 10:45:22;;;;;;;3.05;2.35;;;17.90;99.90;;;;;;4998446;28;20837;-42
2023/08/01 10:47:49;;;;;;;3.05;2.42;;;17.90;99.90;;;;;;5008521;28;20045;-42
2023/08/01 10:50:16;;;;;;;3.75;2.30;;;18.10;99.90;;;;;;5004802;28;20103;-42
2023/08/01 10:52:42;;;;;;;4.03;2.50;;;18.10;99.90;;;;;;5001743;28;20061;-40
2023/08/01 10:55:08;;;;;;;3.95;2.13;;;18.10;99.90;;;;;;4999520;28;20022;-41
2023/08/01 10:57:36;;;;;;;4.35;1.85;;;18.20;99.90;;;;;;5003870;28;20022;-39
2023/08/01 11:00:09;;;;;;;2.95;2.40;;;18.30;99.90;;;;;;5002430;28;20026;-41
2023/08/01 11:02:35;;;;;;;3.67;2.45;;;18.40;99.90;;;;;;5005024;28;20034;-42
2023/08/01 11:05:02;;;;;;;3.42;2.10;;;18.40;99.90;;;;;;5002612;28;20033;-41
2023/08/01 11:07:28;;;;;;;2.30;1.65;;;18.40;99.90;;;;;;5002924;28;20375;-40
2023/08/01 11:10:10;;;;;;;3.72;2.17;;;18.40;99.90;;;;;;4999206;28;20030;-41
2023/08/01 11:12:38;;;;;;;3.15;2.30;;;18.40;99.90;;;;;;5007042;28;20073;-41
2023/08/01 11:15:07;;;;;;;2.63;2.00;;;18.40;99.90;;;;;;5004837;28;20022;-40
2023/08/01 11:17:33;;;;;;;3.08;1.92;;;18.30;99.90;;;;;;5003466;28;20030;-41
2023/08/01 11:20:07;;;;;;;2.25;1.75;;;18.20;99.90;;;;;;5003855;28;20190;-41
2023/08/01 11:22:33;;;;;;;2.13;1.60;;;18.20;99.90;;;;;;5003753;28;20066;-42
2023/08/01 11:24:59;;;;;;;2.58;1.70;;;18.00;99.90;;;;;;5001069;28;20041;-41
2023/08/01 11:27:28;;;;;;;2.58;1.80;;;17.90;99.90;;;;;;4996661;28;20034;-41
2023/08/01 11:29:54;;;;;;;2.75;1.77;;;17.80;99.90;;;;;;5004808;28;20028;-41
2023/08/01 11:32:20;;;;;;;1.75;1.60;;;17.70;99.90;;;;;;5004477;28;20132;-41
2023/08/01 11:34:47;;;;;;;3.03;2.00;;;17.60;99.90;;;;;;5005727;28;20680;-40
2023/08/01 11:37:15;;;;;;;2.17;1.77;;;17.60;99.90;;;;;;5001759;28;20033;-41
2023/08/01 11:39:40;;;;;;;3.07;1.63;;;17.60;99.90;;;;;;4989425;28;20026;-41
2023/08/01 11:42:06;;;;;;;2.45;1.75;;;17.60;99.90;;;;;;5005356;28;20041;-41
2023/08/01 11:44:32;;;;;;;2.88;1.67;;;17.60;99.90;;;;;;5006446;28;20050;-41
2023/08/01 11:46:58;;;;;;;3.50;1.90;;;17.70;99.90;;;;;;5007927;28;20041;-42
2023/08/01 11:49:24;;;;;;;3.17;2.05;;;17.90;99.90;;;;;;5014026;28;20479;-41
2023/08/01 11:51:49;;;;;;;3.67;1.75;;;17.90;99.90;;;;;;5001854;28;20080;-39
2023/08/01 11:54:17;;;;;;;3.22;1.92;;;17.80;99.90;;;;;;4986986;28;20038;-41
2023/08/01 11:56:43;;;;;;;2.53;2.03;;;17.80;99.90;;;;;;5006567;28;20716;-41
2023/08/01 11:59:16;;;;;;;3.40;1.90;;;17.80;99.90;;;;;;5009778;28;20104;-42
2023/08/01 12:01:46;;;;;;;3.35;2.47;;;17.90;99.90;;;;;;5009956;28;20034;-37
2023/08/01 12:04:23;;;;;;;2.88;1.70;;;17.90;99.90;;;;;;5006861;28;20048;-40
2023/08/01 12:06:49;;;;;;;2.73;1.80;;;17.90;99.90;;;;;;5008138;28;20043;-40
2023/08/01 12:09:15;;;;;;;3.42;1.98;;;17.80;99.90;;;;;;5001151;28;20030;-41
2023/08/01 12:11:41;;;;;;;1.83;1.40;;;17.70;99.90;;;;;;5007479;28;20030;-39
2023/08/01 12:14:09;;;;;;;3.05;2.10;;;17.40;99.90;;;;;;5002916;28;20030;-41
2023/08/01 12:16:35;;;;;;;;;;;17.20;99.90;;;;;;5003234;28;20030;-41
2023/08/01 12:19:01;;;;;;;2.67;2.00;;;17.30;99.90;;;;;;5003692;28;19991;-42
2023/08/01 12:21:27;;;;;;;2.58;2.03;;;17.20;99.90;;;;;;5005114;28;20116;-38
2023/08/01 12:23:53;;;;;;;3.55;2.35;;;17.20;99.90;;;;;;5007120;28;20423;-41
2023/08/01 12:26:18;;;;;;;3.60;2.28;;;17.40;99.90;;;;;;5002971;28;20033;-42
2023/08/01 12:28:44;;;;;;;2.97;2.22;;;17.50;99.90;;;;;;5011339;28;20050;-41
2023/08/01 12:31:10;;;;;;;2.80;2.10;;;17.60;99.90;;;;;;5004154;28;20034;-42
2023/08/01 12:33:35;;;;;;;2.90;2.25;;;17.70;99.90;;;;;;5005981;28;20199;-41
2023/08/01 12:36:03;;;;;;;3.45;1.88;;;17.70;99.90;;;;;;5003379;28;20559;-39
2023/08/01 12:38:28;;;;;;;3.65;2.00;;;17.50;99.90;;;;;;5007063;28;20483;-41
2023/08/01 12:40:54;;;;;;;3.67;2.30;;;17.50;99.90;;;;;;5002592;28;20029;-41
2023/08/01 12:43:20;;;;;;;2.95;2.30;;;17.50;99.90;;;;;;5006429;28;20088;-41